Willard, Colorado
Current Conditions -  °F | °C
As of 5:10 PM on Tuesday 25 Nov 2014 (Local Time) from KSTK Reporting Station
Overcast Overcast  
Wind Chill: 39°   Ceiling: 7000
Heat Index: 45°   Visibility: 10mi
Dew Point: 30°   Wind: 12mph
Humidity: 57%   Direction: 30°NNE
Pressure: 29.89"   Gusts: 17mph
Location:  40.5426°N, 103.449°W
Report Text: KSTK 260010Z AUTO 03010G15KT 10SM OVC070 07/M01 A2989 RMK AO2
Loading
Personal Weather Stations






























Interactive Weather Map New forecast layout! Learn more

10-Day Weather Forecast

Advertisements
Track Severe Weather on mobile